sensor_id;sensor_type;location;lat;lon;timestamp;pressure;altitude;pressure_sealevel;temperature;humidity
63033;BME280;49121;38.932;-9.018;2023-03-02T00:00:07;111992.50;;;-145.11;75.69
63033;BME280;49121;38.932;-9.018;2023-03-02T00:02:17;111992.50;;;-145.11;75.35
63033;BME280;49121;38.932;-9.018;2023-03-02T00:06:42;111992.50;;;-145.11;75.30
63033;BME280;49121;38.932;-9.018;2023-03-02T00:08:44;111992.50;;;-145.11;75.52
63033;BME280;49121;38.932;-9.018;2023-03-02T00:10:45;111992.50;;;-145.11;75.64
63033;BME280;49121;38.932;-9.018;2023-03-02T00:12:45;111992.50;;;-145.11;76.34
63033;BME280;49121;38.932;-9.018;2023-03-02T00:14:46;111992.50;;;-145.11;76.28
63033;BME280;49121;38.932;-9.018;2023-03-02T00:16:47;111992.50;;;-145.11;76.81
63033;BME280;49121;38.932;-9.018;2023-03-02T00:18:47;111992.50;;;-145.11;76.96
63033;BME280;49121;38.932;-9.018;2023-03-02T00:20:48;111992.50;;;-145.11;76.41
63033;BME280;49121;38.932;-9.018;2023-03-02T00:22:49;111992.50;;;-145.11;76.84
63033;BME280;49121;38.932;-9.018;2023-03-02T00:24:49;111992.50;;;-145.11;76.92
63033;BME280;49121;38.932;-9.018;2023-03-02T00:26:50;111992.50;;;-145.11;77.26
63033;BME280;49121;38.932;-9.018;2023-03-02T00:28:50;111992.50;;;-145.11;78.09
63033;BME280;49121;38.932;-9.018;2023-03-02T00:30:51;111992.50;;;-145.11;77.80
63033;BME280;49121;38.932;-9.018;2023-03-02T00:32:52;111992.50;;;-145.11;78.48
63033;BME280;49121;38.932;-9.018;2023-03-02T00:34:52;111992.50;;;-145.11;78.69
63033;BME280;49121;38.932;-9.018;2023-03-02T00:36:53;111992.50;;;-145.11;78.70
63033;BME280;49121;38.932;-9.018;2023-03-02T00:38:54;111992.50;;;-145.11;78.75
63033;BME280;49121;38.932;-9.018;2023-03-02T00:40:56;111992.50;;;-145.11;78.13
63033;BME280;49121;38.932;-9.018;2023-03-02T00:43:04;111992.50;;;-145.11;78.36
63033;BME280;49121;38.932;-9.018;2023-03-02T00:45:06;111992.50;;;-145.11;78.50
63033;BME280;49121;38.932;-9.018;2023-03-02T00:47:06;111992.50;;;-145.11;78.07
63033;BME280;49121;38.932;-9.018;2023-03-02T00:49:07;111992.50;;;-145.11;78.27
63033;BME280;49121;38.932;-9.018;2023-03-02T00:51:08;111992.50;;;-145.11;78.42
63033;BME280;49121;38.932;-9.018;2023-03-02T00:53:09;111992.50;;;-145.11;77.83
63033;BME280;49121;38.932;-9.018;2023-03-02T00:55:10;111992.50;;;-145.11;77.58
63033;BME280;49121;38.932;-9.018;2023-03-02T00:57:29;111992.50;;;-145.11;77.29
63033;BME280;49121;38.932;-9.018;2023-03-02T00:59:36;111992.50;;;-145.11;77.43
63033;BME280;49121;38.932;-9.018;2023-03-02T01:02:04;111992.50;;;-145.11;77.88
63033;BME280;49121;38.932;-9.018;2023-03-02T01:04:05;111992.50;;;-145.11;78.56
63033;BME280;49121;38.932;-9.018;2023-03-02T01:06:13;111992.50;;;-145.11;78.88
63033;BME280;49121;38.932;-9.018;2023-03-02T01:08:15;111992.50;;;-145.11;79.15
63033;BME280;49121;38.932;-9.018;2023-03-02T01:10:15;111992.50;;;-145.11;79.47
63033;BME280;49121;38.932;-9.018;2023-03-02T01:12:16;111992.50;;;-145.11;79.33
63033;BME280;49121;38.932;-9.018;2023-03-02T01:14:17;111992.50;;;-145.11;79.76
63033;BME280;49121;38.932;-9.018;2023-03-02T01:16:18;111992.50;;;-145.11;79.91
63033;BME280;49121;38.932;-9.018;2023-03-02T01:18:18;111992.50;;;-145.11;79.83
63033;BME280;49121;38.932;-9.018;2023-03-02T01:20:19;111992.50;;;-145.11;80.11
63033;BME280;49121;38.932;-9.018;2023-03-02T01:22:20;111992.50;;;-145.11;80.38
63033;BME280;49121;38.932;-9.018;2023-03-02T01:24:22;111992.50;;;-145.11;80.47
63033;BME280;49121;38.932;-9.018;2023-03-02T01:26:22;111992.50;;;-145.11;80.39
63033;BME280;49121;38.932;-9.018;2023-03-02T01:28:23;111992.50;;;-145.11;80.42
63033;BME280;49121;38.932;-9.018;2023-03-02T01:30:24;111992.50;;;-145.11;80.55
63033;BME280;49121;38.932;-9.018;2023-03-02T01:32:24;111992.50;;;-145.11;80.64
63033;BME280;49121;38.932;-9.018;2023-03-02T01:34:25;111992.50;;;-145.11;81.00
63033;BME280;49121;38.932;-9.018;2023-03-02T01:36:26;111992.50;;;-145.11;80.84
63033;BME280;49121;38.932;-9.018;2023-03-02T01:38:27;111992.50;;;-145.11;81.04
63033;BME280;49121;38.932;-9.018;2023-03-02T01:40:28;111992.50;;;-145.11;81.36
63033;BME280;49121;38.932;-9.018;2023-03-02T01:42:33;111992.50;;;-145.11;81.21
63033;BME280;49121;38.932;-9.018;2023-03-02T01:46:39;111992.50;;;-145.11;81.00
63033;BME280;49121;38.932;-9.018;2023-03-02T01:48:57;111992.50;;;-145.11;80.91
63033;BME280;49121;38.932;-9.018;2023-03-02T01:53:55;111992.50;;;-145.11;80.36
63033;BME280;49121;38.932;-9.018;2023-03-02T01:55:58;111992.50;;;-145.11;80.12
63033;BME280;49121;38.932;-9.018;2023-03-02T01:58:01;111992.50;;;-145.11;79.92
63033;BME280;49121;38.932;-9.018;2023-03-02T02:00:05;111992.50;;;-145.11;80.57
63033;BME280;49121;38.932;-9.018;2023-03-02T02:02:12;111992.50;;;-145.11;80.57
63033;BME280;49121;38.932;-9.018;2023-03-02T02:04:13;111992.50;;;-145.11;80.87
63033;BME280;49121;38.932;-9.018;2023-03-02T02:06:22;111992.50;;;-145.11;80.74
63033;BME280;49121;38.932;-9.018;2023-03-02T02:08:23;111992.50;;;-145.11;81.12
63033;BME280;49121;38.932;-9.018;2023-03-02T02:10:24;111992.50;;;-145.11;80.63
63033;BME280;49121;38.932;-9.018;2023-03-02T02:12:27;111992.50;;;-145.11;80.94
63033;BME280;49121;38.932;-9.018;2023-03-02T02:14:47;111992.50;;;-145.11;80.93
63033;BME280;49121;38.932;-9.018;2023-03-02T02:17:41;111992.50;;;-145.11;81.21
63033;BME280;49121;38.932;-9.018;2023-03-02T02:20:00;111992.50;;;-145.11;81.17
63033;BME280;49121;38.932;-9.018;2023-03-02T02:22:02;111992.50;;;-145.11;80.94
63033;BME280;49121;38.932;-9.018;2023-03-02T02:24:26;111992.50;;;-145.11;80.55
63033;BME280;49121;38.932;-9.018;2023-03-02T02:28:32;111992.50;;;-145.11;80.70
63033;BME280;49121;38.932;-9.018;2023-03-02T02:30:36;111992.50;;;-145.11;81.06
63033;BME280;49121;38.932;-9.018;2023-03-02T02:32:39;111992.50;;;-145.11;80.90
63033;BME280;49121;38.932;-9.018;2023-03-02T02:35:05;111992.50;;;-145.11;81.56
63033;BME280;49121;38.932;-9.018;2023-03-02T02:37:32;111992.50;;;-145.11;81.00
63033;BME280;49121;38.932;-9.018;2023-03-02T02:39:38;111992.50;;;-145.11;81.32
63033;BME280;49121;38.932;-9.018;2023-03-02T02:41:41;111992.50;;;-145.11;81.49
63033;BME280;49121;38.932;-9.018;2023-03-02T02:43:43;111992.50;;;-145.11;81.67
63033;BME280;49121;38.932;-9.018;2023-03-02T02:45:45;111992.50;;;-145.11;81.10
63033;BME280;49121;38.932;-9.018;2023-03-02T02:47:47;111992.50;;;-145.11;81.43
63033;BME280;49121;38.932;-9.018;2023-03-02T02:49:51;111992.50;;;-145.11;81.63
63033;BME280;49121;38.932;-9.018;2023-03-02T02:51:53;111992.50;;;-145.11;81.80
63033;BME280;49121;38.932;-9.018;2023-03-02T02:53:59;111992.50;;;-145.11;81.77
63033;BME280;49121;38.932;-9.018;2023-03-02T02:56:05;111992.50;;;-145.11;81.40
63033;BME280;49121;38.932;-9.018;2023-03-02T02:58:36;111992.50;;;-145.11;81.34
63033;BME280;49121;38.932;-9.018;2023-03-02T03:00:39;111992.50;;;-145.11;81.57
63033;BME280;49121;38.932;-9.018;2023-03-02T03:02:43;111992.50;;;-145.11;81.62
63033;BME280;49121;38.932;-9.018;2023-03-02T03:04:45;111992.50;;;-145.11;81.82
63033;BME280;49121;38.932;-9.018;2023-03-02T03:08:57;111992.50;;;-145.11;81.77
63033;BME280;49121;38.932;-9.018;2023-03-02T03:11:14;111992.50;;;-145.11;81.56
63033;BME280;49121;38.932;-9.018;2023-03-02T03:13:15;111992.50;;;-145.11;81.51
63033;BME280;49121;38.932;-9.018;2023-03-02T03:15:16;111992.50;;;-145.11;81.13
63033;BME280;49121;38.932;-9.018;2023-03-02T03:17:17;111992.50;;;-145.11;80.88
63033;BME280;49121;38.932;-9.018;2023-03-02T03:19:28;111992.50;;;-145.11;80.66
63033;BME280;49121;38.932;-9.018;2023-03-02T03:21:30;111992.50;;;-145.11;81.15
63033;BME280;49121;38.932;-9.018;2023-03-02T03:23:31;111992.50;;;-145.11;81.17
63033;BME280;49121;38.932;-9.018;2023-03-02T03:25:31;111992.50;;;-145.11;81.27
63033;BME280;49121;38.932;-9.018;2023-03-02T03:27:34;111992.50;;;-145.11;81.13
63033;BME280;49121;38.932;-9.018;2023-03-02T03:29:39;111992.50;;;-145.11;81.06
63033;BME280;49121;38.932;-9.018;2023-03-02T03:31:42;111992.50;;;-145.11;81.20
63033;BME280;49121;38.932;-9.018;2023-03-02T03:33:42;111992.50;;;-145.11;81.62
63033;BME280;49121;38.932;-9.018;2023-03-02T03:35:43;111992.50;;;-145.11;80.85
63033;BME280;49121;38.932;-9.018;2023-03-02T03:37:44;111992.50;;;-145.11;80.43
63033;BME280;49121;38.932;-9.018;2023-03-02T03:39:45;111992.50;;;-145.11;80.22
63033;BME280;49121;38.932;-9.018;2023-03-02T03:41:46;111992.50;;;-145.11;80.59
63033;BME280;49121;38.932;-9.018;2023-03-02T03:43:47;111992.50;;;-145.11;80.50
63033;BME280;49121;38.932;-9.018;2023-03-02T03:45:48;111992.50;;;-145.11;80.99
63033;BME280;49121;38.932;-9.018;2023-03-02T03:47:53;111992.50;;;-145.11;80.73
63033;BME280;49121;38.932;-9.018;2023-03-02T03:49:53;111992.50;;;-145.11;81.22
63033;BME280;49121;38.932;-9.018;2023-03-02T03:51:54;111992.50;;;-145.11;81.18
63033;BME280;49121;38.932;-9.018;2023-03-02T03:53:55;111992.50;;;-145.11;81.14
63033;BME280;49121;38.932;-9.018;2023-03-02T03:56:02;111992.50;;;-145.11;80.75
63033;BME280;49121;38.932;-9.018;2023-03-02T03:58:03;111992.50;;;-145.11;81.54
63033;BME280;49121;38.932;-9.018;2023-03-02T04:00:07;111992.50;;;-145.11;81.99
63033;BME280;49121;38.932;-9.018;2023-03-02T04:02:14;111992.50;;;-145.11;81.48
63033;BME280;49121;38.932;-9.018;2023-03-02T04:04:25;111992.50;;;-145.11;81.65
63033;BME280;49121;38.932;-9.018;2023-03-02T04:06:26;111992.50;;;-145.11;81.19
63033;BME280;49121;38.932;-9.018;2023-03-02T04:08:27;111992.50;;;-145.11;81.21
63033;BME280;49121;38.932;-9.018;2023-03-02T04:10:28;111992.50;;;-145.11;81.21
63033;BME280;49121;38.932;-9.018;2023-03-02T04:12:30;111992.50;;;-145.11;80.78
63033;BME280;49121;38.932;-9.018;2023-03-02T04:14:31;111992.50;;;-145.11;80.39
63033;BME280;49121;38.932;-9.018;2023-03-02T04:16:32;111992.50;;;-145.11;80.12
63033;BME280;49121;38.932;-9.018;2023-03-02T04:18:34;111992.50;;;-145.11;79.81
63033;BME280;49121;38.932;-9.018;2023-03-02T04:20:35;111992.50;;;-145.11;79.32
63033;BME280;49121;38.932;-9.018;2023-03-02T04:22:35;111992.50;;;-145.11;79.17
63033;BME280;49121;38.932;-9.018;2023-03-02T04:24:40;111992.50;;;-145.11;79.32
63033;BME280;49121;38.932;-9.018;2023-03-02T04:26:42;111992.50;;;-145.11;79.40
63033;BME280;49121;38.932;-9.018;2023-03-02T04:28:42;111992.50;;;-145.11;79.45
63033;BME280;49121;38.932;-9.018;2023-03-02T04:30:43;111992.50;;;-145.11;80.10
63033;BME280;49121;38.932;-9.018;2023-03-02T04:32:44;111992.50;;;-145.11;80.53
63033;BME280;49121;38.932;-9.018;2023-03-02T04:34:45;111992.50;;;-145.11;80.69
63033;BME280;49121;38.932;-9.018;2023-03-02T04:36:46;111992.50;;;-145.11;81.10
63033;BME280;49121;38.932;-9.018;2023-03-02T04:38:48;111992.50;;;-145.11;80.88
63033;BME280;49121;38.932;-9.018;2023-03-02T04:40:54;111992.50;;;-145.11;81.08
63033;BME280;49121;38.932;-9.018;2023-03-02T04:42:54;111992.50;;;-145.11;80.39
63033;BME280;49121;38.932;-9.018;2023-03-02T04:44:55;111992.50;;;-145.11;80.31
63033;BME280;49121;38.932;-9.018;2023-03-02T04:46:57;111992.50;;;-145.11;80.29
63033;BME280;49121;38.932;-9.018;2023-03-02T04:48:57;111992.50;;;-145.11;79.83
63033;BME280;49121;38.932;-9.018;2023-03-02T04:50:58;111992.50;;;-145.11;80.00
63033;BME280;49121;38.932;-9.018;2023-03-02T04:52:58;111992.50;;;-145.11;80.32
63033;BME280;49121;38.932;-9.018;2023-03-02T04:54:59;111992.50;;;-145.11;80.01
63033;BME280;49121;38.932;-9.018;2023-03-02T04:57:00;111992.50;;;-145.11;80.32
63033;BME280;49121;38.932;-9.018;2023-03-02T04:59:00;111992.50;;;-145.11;80.49
63033;BME280;49121;38.932;-9.018;2023-03-02T05:01:01;111992.50;;;-145.11;80.58
63033;BME280;49121;38.932;-9.018;2023-03-02T05:03:03;111992.50;;;-145.11;80.90
63033;BME280;49121;38.932;-9.018;2023-03-02T05:05:04;111992.50;;;-145.11;81.32
63033;BME280;49121;38.932;-9.018;2023-03-02T05:07:05;111992.50;;;-145.11;81.49
63033;BME280;49121;38.932;-9.018;2023-03-02T05:09:07;111992.50;;;-145.11;81.70
63033;BME280;49121;38.932;-9.018;2023-03-02T05:11:26;111992.50;;;-145.11;82.02
63033;BME280;49121;38.932;-9.018;2023-03-02T05:13:28;111992.50;;;-145.11;81.37
63033;BME280;49121;38.932;-9.018;2023-03-02T05:15:35;111992.50;;;-145.11;81.15
63033;BME280;49121;38.932;-9.018;2023-03-02T05:17:36;111992.50;;;-145.11;81.90
63033;BME280;49121;38.932;-9.018;2023-03-02T05:19:36;111992.50;;;-145.11;82.28
63033;BME280;49121;38.932;-9.018;2023-03-02T05:21:37;111992.50;;;-145.11;81.92
63033;BME280;49121;38.932;-9.018;2023-03-02T05:23:40;111992.50;;;-145.11;82.43
63033;BME280;49121;38.932;-9.018;2023-03-02T05:25:40;111992.50;;;-145.11;82.31
63033;BME280;49121;38.932;-9.018;2023-03-02T05:27:41;111992.50;;;-145.11;82.56
63033;BME280;49121;38.932;-9.018;2023-03-02T05:29:42;111992.50;;;-145.11;82.71
63033;BME280;49121;38.932;-9.018;2023-03-02T05:31:43;111992.50;;;-145.11;83.01
63033;BME280;49121;38.932;-9.018;2023-03-02T05:33:45;111992.50;;;-145.11;82.69
63033;BME280;49121;38.932;-9.018;2023-03-02T05:35:46;111992.50;;;-145.11;82.91
63033;BME280;49121;38.932;-9.018;2023-03-02T05:37:47;111992.50;;;-145.11;83.04
63033;BME280;49121;38.932;-9.018;2023-03-02T05:39:48;111992.50;;;-145.11;84.00
63033;BME280;49121;38.932;-9.018;2023-03-02T05:41:48;111992.50;;;-145.11;84.05
63033;BME280;49121;38.932;-9.018;2023-03-02T05:43:49;111992.50;;;-145.11;83.84
63033;BME280;49121;38.932;-9.018;2023-03-02T05:45:50;111992.50;;;-145.11;83.97
63033;BME280;49121;38.932;-9.018;2023-03-02T05:47:51;111992.50;;;-145.11;84.19
63033;BME280;49121;38.932;-9.018;2023-03-02T05:49:52;111992.50;;;-145.11;84.05
63033;BME280;49121;38.932;-9.018;2023-03-02T05:51:52;111992.50;;;-145.11;84.24
63033;BME280;49121;38.932;-9.018;2023-03-02T05:53:53;111992.50;;;-145.11;84.19
63033;BME280;49121;38.932;-9.018;2023-03-02T05:56:03;111992.50;;;-145.11;83.88
63033;BME280;49121;38.932;-9.018;2023-03-02T05:58:05;111992.50;;;-145.11;83.62
63033;BME280;49121;38.932;-9.018;2023-03-02T06:00:11;111992.50;;;-145.11;83.43
63033;BME280;49121;38.932;-9.018;2023-03-02T06:02:13;111992.50;;;-145.11;83.62
63033;BME280;49121;38.932;-9.018;2023-03-02T06:04:13;111992.50;;;-145.11;84.21
63033;BME280;49121;38.932;-9.018;2023-03-02T06:06:14;111992.50;;;-145.11;83.93
63033;BME280;49121;38.932;-9.018;2023-03-02T06:08:15;111992.50;;;-145.11;84.09
63033;BME280;49121;38.932;-9.018;2023-03-02T06:10:17;111992.50;;;-145.11;84.73
63033;BME280;49121;38.932;-9.018;2023-03-02T06:12:18;111992.50;;;-145.11;84.96
63033;BME280;49121;38.932;-9.018;2023-03-02T06:14:18;111992.50;;;-145.11;85.06
63033;BME280;49121;38.932;-9.018;2023-03-02T06:18:57;111992.50;;;-145.11;84.00
63033;BME280;49121;38.932;-9.018;2023-03-02T06:20:57;111992.50;;;-145.11;84.16
63033;BME280;49121;38.932;-9.018;2023-03-02T06:22:59;111992.50;;;-145.11;83.32
63033;BME280;49121;38.932;-9.018;2023-03-02T06:24:59;111992.50;;;-145.11;83.60
63033;BME280;49121;38.932;-9.018;2023-03-02T06:27:00;111992.50;;;-145.11;83.37
63033;BME280;49121;38.932;-9.018;2023-03-02T06:29:00;111992.50;;;-145.11;83.98
63033;BME280;49121;38.932;-9.018;2023-03-02T06:31:01;111992.50;;;-145.11;84.38
63033;BME280;49121;38.932;-9.018;2023-03-02T06:33:02;111992.50;;;-145.11;84.24
63033;BME280;49121;38.932;-9.018;2023-03-02T06:35:04;111992.50;;;-145.11;84.51
63033;BME280;49121;38.932;-9.018;2023-03-02T06:37:05;111992.50;;;-145.11;84.90
63033;BME280;49121;38.932;-9.018;2023-03-02T06:39:06;111992.50;;;-145.11;84.41
63033;BME280;49121;38.932;-9.018;2023-03-02T06:41:15;111992.50;;;-145.11;84.78
63033;BME280;49121;38.932;-9.018;2023-03-02T06:43:16;111992.50;;;-145.11;84.83
63033;BME280;49121;38.932;-9.018;2023-03-02T06:45:16;111992.50;;;-145.11;85.16
63033;BME280;49121;38.932;-9.018;2023-03-02T06:47:18;111992.50;;;-145.11;85.36
63033;BME280;49121;38.932;-9.018;2023-03-02T06:49:19;111992.50;;;-145.11;85.22
63033;BME280;49121;38.932;-9.018;2023-03-02T06:51:24;111992.50;;;-145.11;85.71
63033;BME280;49121;38.932;-9.018;2023-03-02T06:53:25;111992.50;;;-145.11;85.35
63033;BME280;49121;38.932;-9.018;2023-03-02T06:55:26;111992.50;;;-145.11;84.81
63033;BME280;49121;38.932;-9.018;2023-03-02T06:57:27;111992.50;;;-145.11;84.93
63033;BME280;49121;38.932;-9.018;2023-03-02T06:59:33;111992.50;;;-145.11;85.18
63033;BME280;49121;38.932;-9.018;2023-03-02T07:01:34;111992.50;;;-145.11;85.33
63033;BME280;49121;38.932;-9.018;2023-03-02T07:03:35;111992.50;;;-145.11;85.36
63033;BME280;49121;38.932;-9.018;2023-03-02T07:05:36;111992.50;;;-145.11;85.61
63033;BME280;49121;38.932;-9.018;2023-03-02T07:07:37;111992.50;;;-145.11;85.41
63033;BME280;49121;38.932;-9.018;2023-03-02T07:09:38;111992.50;;;-145.11;85.27
63033;BME280;49121;38.932;-9.018;2023-03-02T07:11:39;111992.50;;;-145.11;85.52
63033;BME280;49121;38.932;-9.018;2023-03-02T07:13:39;111992.50;;;-145.11;84.75
63033;BME280;49121;38.932;-9.018;2023-03-02T07:15:40;111992.50;;;-145.11;85.08
63033;BME280;49121;38.932;-9.018;2023-03-02T07:17:42;111992.50;;;-145.11;85.34
63033;BME280;49121;38.932;-9.018;2023-03-02T07:20:05;111992.50;;;-145.11;85.07
63033;BME280;49121;38.932;-9.018;2023-03-02T07:22:06;111992.50;;;-145.11;85.39
63033;BME280;49121;38.932;-9.018;2023-03-02T07:24:10;111992.50;;;-145.11;85.33
63033;BME280;49121;38.932;-9.018;2023-03-02T07:26:10;111992.50;;;-145.11;85.24
63033;BME280;49121;38.932;-9.018;2023-03-02T07:28:11;111992.50;;;-145.11;85.37
63033;BME280;49121;38.932;-9.018;2023-03-02T07:30:12;111992.50;;;-145.11;85.14
63033;BME280;49121;38.932;-9.018;2023-03-02T07:32:14;111992.50;;;-145.11;84.84
63033;BME280;49121;38.932;-9.018;2023-03-02T07:34:14;111992.50;;;-145.11;84.31
63033;BME280;49121;38.932;-9.018;2023-03-02T07:36:15;111992.50;;;-145.11;84.78
63033;BME280;49121;38.932;-9.018;2023-03-02T07:38:16;111992.50;;;-145.11;84.79
63033;BME280;49121;38.932;-9.018;2023-03-02T07:40:17;111992.50;;;-145.11;84.65
63033;BME280;49121;38.932;-9.018;2023-03-02T07:42:17;111992.50;;;-145.11;84.41
63033;BME280;49121;38.932;-9.018;2023-03-02T07:44:22;111992.50;;;-145.11;85.75
63033;BME280;49121;38.932;-9.018;2023-03-02T07:46:22;111992.50;;;-145.11;86.06
63033;BME280;49121;38.932;-9.018;2023-03-02T07:48:23;111992.50;;;-145.11;85.19
63033;BME280;49121;38.932;-9.018;2023-03-02T07:50:23;111992.50;;;-145.11;83.23
63033;BME280;49121;38.932;-9.018;2023-03-02T07:52:24;111992.50;;;-145.11;81.06
63033;BME280;49121;38.932;-9.018;2023-03-02T07:54:26;111992.50;;;-145.11;77.18
63033;BME280;49121;38.932;-9.018;2023-03-02T07:56:29;111992.50;;;-145.11;74.61
63033;BME280;49121;38.932;-9.018;2023-03-02T07:58:30;111992.50;;;-145.11;70.53
63033;BME280;49121;38.932;-9.018;2023-03-02T08:00:31;111992.50;;;-145.11;68.27
63033;BME280;49121;38.932;-9.018;2023-03-02T08:02:33;111992.50;;;-145.11;65.18
63033;BME280;49121;38.932;-9.018;2023-03-02T08:04:34;111992.50;;;-145.11;62.98
63033;BME280;49121;38.932;-9.018;2023-03-02T08:06:36;111992.50;;;-145.11;62.55
63033;BME280;49121;38.932;-9.018;2023-03-02T08:08:37;111992.50;;;-145.11;60.37
63033;BME280;49121;38.932;-9.018;2023-03-02T08:10:37;111992.50;;;-145.11;59.56
63033;BME280;49121;38.932;-9.018;2023-03-02T08:12:38;111992.50;;;-145.11;56.69
63033;BME280;49121;38.932;-9.018;2023-03-02T08:14:39;111992.50;;;-145.11;56.77
63033;BME280;49121;38.932;-9.018;2023-03-02T08:16:40;111992.50;;;-145.11;55.01
63033;BME280;49121;38.932;-9.018;2023-03-02T08:18:41;111992.50;;;-145.11;55.62
63033;BME280;49121;38.932;-9.018;2023-03-02T08:20:42;111992.50;;;-145.11;56.89
63033;BME280;49121;38.932;-9.018;2023-03-02T08:22:42;111992.50;;;-145.11;56.07
63033;BME280;49121;38.932;-9.018;2023-03-02T08:24:43;111992.50;;;-145.11;54.80
63033;BME280;49121;38.932;-9.018;2023-03-02T08:26:43;111992.50;;;-145.11;54.51
63033;BME280;49121;38.932;-9.018;2023-03-02T08:28:44;111992.50;;;-145.11;53.17
63033;BME280;49121;38.932;-9.018;2023-03-02T08:30:54;111992.50;;;-145.11;52.69
63033;BME280;49121;38.932;-9.018;2023-03-02T08:32:56;111992.50;;;-145.11;51.80
63033;BME280;49121;38.932;-9.018;2023-03-02T08:34:56;111992.50;;;-145.11;49.76
63033;BME280;49121;38.932;-9.018;2023-03-02T08:36:57;111992.50;;;-145.11;49.91
63033;BME280;49121;38.932;-9.018;2023-03-02T08:38:57;111992.50;;;-145.11;48.76
63033;BME280;49121;38.932;-9.018;2023-03-02T08:40:58;111992.50;;;-145.11;49.45
63033;BME280;49121;38.932;-9.018;2023-03-02T08:43:01;111992.50;;;-145.11;48.73
63033;BME280;49121;38.932;-9.018;2023-03-02T08:45:02;111992.50;;;-145.11;48.55
63033;BME280;49121;38.932;-9.018;2023-03-02T08:47:02;111992.50;;;-145.11;49.47
63033;BME280;49121;38.932;-9.018;2023-03-02T08:49:03;111992.50;;;-145.11;49.51
63033;BME280;49121;38.932;-9.018;2023-03-02T08:51:12;111992.50;;;-145.11;49.93
63033;BME280;49121;38.932;-9.018;2023-03-02T08:53:15;111992.50;;;-145.11;50.27
63033;BME280;49121;38.932;-9.018;2023-03-02T08:55:15;111992.50;;;-145.11;51.34
63033;BME280;49121;38.932;-9.018;2023-03-02T08:57:17;111992.50;;;-145.11;52.47
63033;BME280;49121;38.932;-9.018;2023-03-02T08:59:18;111992.50;;;-145.11;52.42
63033;BME280;49121;38.932;-9.018;2023-03-02T09:01:23;111992.50;;;-145.11;52.97
63033;BME280;49121;38.932;-9.018;2023-03-02T09:03:24;111992.50;;;-145.11;53.74
63033;BME280;49121;38.932;-9.018;2023-03-02T09:05:24;111992.50;;;-145.11;54.77
63033;BME280;49121;38.932;-9.018;2023-03-02T09:07:27;111992.50;;;-145.11;55.37
63033;BME280;49121;38.932;-9.018;2023-03-02T09:09:29;111992.50;;;-145.11;58.10
63033;BME280;49121;38.932;-9.018;2023-03-02T09:11:32;111992.50;;;-145.11;60.14
63033;BME280;49121;38.932;-9.018;2023-03-02T09:13:33;111992.50;;;-145.11;62.43
63033;BME280;49121;38.932;-9.018;2023-03-02T09:15:35;111992.50;;;-145.11;62.23
63033;BME280;49121;38.932;-9.018;2023-03-02T09:17:37;111992.50;;;-145.11;62.71
63033;BME280;49121;38.932;-9.018;2023-03-02T09:19:37;111992.50;;;-145.11;62.81
63033;BME280;49121;38.932;-9.018;2023-03-02T09:21:41;111992.50;;;-145.11;62.79
63033;BME280;49121;38.932;-9.018;2023-03-02T09:23:41;111992.50;;;-145.11;63.68
63033;BME280;49121;38.932;-9.018;2023-03-02T09:25:42;111992.50;;;-145.11;64.20
63033;BME280;49121;38.932;-9.018;2023-03-02T09:27:43;111992.50;;;-145.11;65.27
63033;BME280;49121;38.932;-9.018;2023-03-02T09:29:44;111992.50;;;-145.11;65.38
63033;BME280;49121;38.932;-9.018;2023-03-02T09:31:45;111992.50;;;-145.11;65.46
63033;BME280;49121;38.932;-9.018;2023-03-02T09:33:46;111992.50;;;-145.11;65.36
63033;BME280;49121;38.932;-9.018;2023-03-02T09:35:46;111992.50;;;-145.11;65.99
63033;BME280;49121;38.932;-9.018;2023-03-02T09:37:47;111992.50;;;-145.11;65.33
63033;BME280;49121;38.932;-9.018;2023-03-02T09:39:48;111992.50;;;-145.11;66.38
63033;BME280;49121;38.932;-9.018;2023-03-02T09:44:29;111992.50;;;-145.11;65.88
63033;BME280;49121;38.932;-9.018;2023-03-02T09:46:53;111992.50;;;-145.11;66.27
63033;BME280;49121;38.932;-9.018;2023-03-02T09:53:50;111992.50;;;-145.11;63.97
63033;BME280;49121;38.932;-9.018;2023-03-02T09:55:54;111992.50;;;-145.11;64.63
63033;BME280;49121;38.932;-9.018;2023-03-02T09:58:00;111992.50;;;-145.11;63.95
63033;BME280;49121;38.932;-9.018;2023-03-02T10:00:11;111992.50;;;-145.11;64.29
63033;BME280;49121;38.932;-9.018;2023-03-02T10:02:36;111992.50;;;-145.11;63.91
63033;BME280;49121;38.932;-9.018;2023-03-02T10:04:41;111992.50;;;-145.11;63.87
63033;BME280;49121;38.932;-9.018;2023-03-02T10:06:44;111992.50;;;-145.11;64.25
63033;BME280;49121;38.932;-9.018;2023-03-02T10:08:45;111992.50;;;-145.11;63.70
63033;BME280;49121;38.932;-9.018;2023-03-02T10:11:13;111992.50;;;-145.11;63.00
63033;BME280;49121;38.932;-9.018;2023-03-02T10:13:28;111992.50;;;-145.11;63.05
63033;BME280;49121;38.932;-9.018;2023-03-02T10:15:49;111992.50;;;-145.11;62.99
63033;BME280;49121;38.932;-9.018;2023-03-02T10:17:58;111992.50;;;-145.11;62.60
63033;BME280;49121;38.932;-9.018;2023-03-02T10:20:04;111992.50;;;-145.11;62.82
63033;BME280;49121;38.932;-9.018;2023-03-02T10:22:17;111992.50;;;-145.11;62.54
63033;BME280;49121;38.932;-9.018;2023-03-02T10:24:40;111992.50;;;-145.11;61.94
63033;BME280;49121;38.932;-9.018;2023-03-02T10:26:47;111992.50;;;-145.11;62.05
63033;BME280;49121;38.932;-9.018;2023-03-02T10:33:52;111992.50;;;-145.11;59.88
63033;BME280;49121;38.932;-9.018;2023-03-02T10:35:53;111992.50;;;-145.11;59.77
63033;BME280;49121;38.932;-9.018;2023-03-02T10:37:59;111992.50;;;-145.11;59.30
63033;BME280;49121;38.932;-9.018;2023-03-02T10:40:01;111992.50;;;-145.11;59.12
63033;BME280;49121;38.932;-9.018;2023-03-02T10:42:03;111992.50;;;-145.11;59.05
63033;BME280;49121;38.932;-9.018;2023-03-02T10:46:16;111992.50;;;-145.11;58.21
63033;BME280;49121;38.932;-9.018;2023-03-02T10:48:23;111992.50;;;-145.11;58.25